sensor_id;sensor_type;location;lat;lon;timestamp;pressure;altitude;pressure_sealevel;temperature;humidity
34031;BME280;20319;28.466;-16.274;2022-09-21T00:01:15;100120.88;;;26.30;68.03
34031;BME280;20319;28.466;-16.274;2022-09-21T00:11:13;100109.88;;;26.30;67.55
34031;BME280;20319;28.466;-16.274;2022-09-21T00:14:02;100109.88;;;26.30;67.27
34031;BME280;20319;28.466;-16.274;2022-09-21T00:17:01;100110.72;;;26.31;67.23
34031;BME280;20319;28.466;-16.274;2022-09-21T00:19:35;100106.53;;;26.28;66.74
34031;BME280;20319;28.466;-16.274;2022-09-21T00:29:09;100100.88;;;26.18;66.11
34031;BME280;20319;28.466;-16.274;2022-09-21T00:35:38;100089.56;;;26.14;65.84
34031;BME280;20319;28.466;-16.274;2022-09-21T00:38:29;100097.19;;;26.12;65.65
34031;BME280;20319;28.466;-16.274;2022-09-21T00:41:17;100091.22;;;26.15;65.15
34031;BME280;20319;28.466;-16.274;2022-09-21T00:44:58;100082.97;;;26.15;64.39
34031;BME280;20319;28.466;-16.274;2022-09-21T00:48:26;100095.28;;;26.13;64.53
34031;BME280;20319;28.466;-16.274;2022-09-21T00:57:39;100085.38;;;26.12;63.56
34031;BME280;20319;28.466;-16.274;2022-09-21T01:00:17;100081.22;;;26.09;63.46
34031;BME280;20319;28.466;-16.274;2022-09-21T01:03:24;100083.22;;;26.14;63.72
34031;BME280;20319;28.466;-16.274;2022-09-21T01:05:59;100078.81;;;26.13;63.65
34031;BME280;20319;28.466;-16.274;2022-09-21T01:44:06;100030.19;;;25.85;62.67
34031;BME280;20319;28.466;-16.274;2022-09-21T01:50:12;100023.16;;;25.61;62.57
34031;BME280;20319;28.466;-16.274;2022-09-21T02:36:11;99972.72;;;25.67;61.80
34031;BME280;20319;28.466;-16.274;2022-09-21T02:42:57;99972.97;;;25.49;61.70
34031;BME280;20319;28.466;-16.274;2022-09-21T02:49:37;99976.38;;;25.40;62.34
34031;BME280;20319;28.466;-16.274;2022-09-21T02:52:14;99972.88;;;25.44;62.60
34031;BME280;20319;28.466;-16.274;2022-09-21T02:54:59;99967.13;;;25.46;63.15
34031;BME280;20319;28.466;-16.274;2022-09-21T02:57:41;99960.31;;;25.48;62.63
34031;BME280;20319;28.466;-16.274;2022-09-21T03:00:19;99961.06;;;25.44;62.34
34031;BME280;20319;28.466;-16.274;2022-09-21T03:03:13;99959.81;;;25.35;62.60
34031;BME280;20319;28.466;-16.274;2022-09-21T03:06:07;99960.88;;;25.34;63.19
34031;BME280;20319;28.466;-16.274;2022-09-21T03:09:06;99969.19;;;25.39;63.19
34031;BME280;20319;28.466;-16.274;2022-09-21T03:11:52;99958.81;;;25.41;63.59
34031;BME280;20319;28.466;-16.274;2022-09-21T03:14:29;99949.91;;;25.34;63.49
34031;BME280;20319;28.466;-16.274;2022-09-21T03:17:14;99953.81;;;25.38;63.96
34031;BME280;20319;28.466;-16.274;2022-09-21T03:23:32;99943.53;;;25.33;64.22
34031;BME280;20319;28.466;-16.274;2022-09-21T03:26:06;99952.19;;;25.25;64.70
34031;BME280;20319;28.466;-16.274;2022-09-21T03:28:33;99950.41;;;25.19;65.25
34031;BME280;20319;28.466;-16.274;2022-09-21T03:31:08;99941.34;;;25.19;65.07
34031;BME280;20319;28.466;-16.274;2022-09-21T03:33:42;99947.44;;;25.21;65.46
34031;BME280;20319;28.466;-16.274;2022-09-21T03:36:13;99935.47;;;25.27;65.86
34031;BME280;20319;28.466;-16.274;2022-09-21T03:38:53;99943.78;;;25.32;65.86
34031;BME280;20319;28.466;-16.274;2022-09-21T03:41:27;99940.81;;;25.33;65.61
34031;BME280;20319;28.466;-16.274;2022-09-21T03:44:11;99933.56;;;25.27;65.95
34031;BME280;20319;28.466;-16.274;2022-09-21T03:46:58;99941.06;;;25.32;66.01
34031;BME280;20319;28.466;-16.274;2022-09-21T03:49:32;99933.19;;;25.35;66.11
34031;BME280;20319;28.466;-16.274;2022-09-21T03:52:35;99939.75;;;25.34;65.74
34031;BME280;20319;28.466;-16.274;2022-09-21T04:02:09;99936.25;;;25.39;66.16
34031;BME280;20319;28.466;-16.274;2022-09-21T04:04:59;99939.25;;;25.37;65.73
34031;BME280;20319;28.466;-16.274;2022-09-21T04:08:08;99941.31;;;25.30;65.86
34031;BME280;20319;28.466;-16.274;2022-09-21T04:11:13;99947.44;;;25.21;66.26
34031;BME280;20319;28.466;-16.274;2022-09-21T04:14:10;99951.47;;;25.18;66.45
34031;BME280;20319;28.466;-16.274;2022-09-21T04:17:11;99941.59;;;25.17;66.31
34031;BME280;20319;28.466;-16.274;2022-09-21T04:19:58;99944.69;;;25.21;66.55
34031;BME280;20319;28.466;-16.274;2022-09-21T04:29:01;99946.28;;;25.33;66.21
34031;BME280;20319;28.466;-16.274;2022-09-21T04:31:48;99936.56;;;25.26;66.69
34031;BME280;20319;28.466;-16.274;2022-09-21T04:34:33;99940.00;;;25.21;66.99
34031;BME280;20319;28.466;-16.274;2022-09-21T04:45:10;99927.81;;;25.29;66.71
34031;BME280;20319;28.466;-16.274;2022-09-21T04:48:14;99941.03;;;25.43;66.73
34031;BME280;20319;28.466;-16.274;2022-09-21T04:51:46;99943.19;;;25.41;66.48
34031;BME280;20319;28.466;-16.274;2022-09-21T04:58:41;99946.00;;;25.46;66.74
34031;BME280;20319;28.466;-16.274;2022-09-21T05:02:11;99948.59;;;25.53;66.65
34031;BME280;20319;28.466;-16.274;2022-09-21T05:05:38;99942.63;;;25.56;66.33
34031;BME280;20319;28.466;-16.274;2022-09-21T05:08:24;99950.00;;;25.55;65.94
34031;BME280;20319;28.466;-16.274;2022-09-21T05:11:16;99950.59;;;25.57;66.06
34031;BME280;20319;28.466;-16.274;2022-09-21T05:13:50;99949.06;;;25.50;66.39
34031;BME280;20319;28.466;-16.274;2022-09-21T05:16:21;99954.09;;;25.53;66.32
34031;BME280;20319;28.466;-16.274;2022-09-21T05:18:47;99944.84;;;25.42;66.12
34031;BME280;20319;28.466;-16.274;2022-09-21T05:21:14;99950.06;;;25.44;66.28
34031;BME280;20319;28.466;-16.274;2022-09-21T05:23:41;99952.47;;;25.40;66.02
34031;BME280;20319;28.466;-16.274;2022-09-21T05:26:41;99961.06;;;25.44;65.75
34031;BME280;20319;28.466;-16.274;2022-09-21T05:33:01;99961.56;;;25.41;65.88
34031;BME280;20319;28.466;-16.274;2022-09-21T05:39:09;99961.66;;;25.46;65.65
34031;BME280;20319;28.466;-16.274;2022-09-21T06:09:28;99974.69;;;25.39;66.05
34031;BME280;20319;28.466;-16.274;2022-09-21T06:12:00;99975.66;;;25.33;66.23
34031;BME280;20319;28.466;-16.274;2022-09-21T06:15:11;99975.03;;;25.31;66.14
34031;BME280;20319;28.466;-16.274;2022-09-21T06:17:53;99980.72;;;25.24;66.90
34031;BME280;20319;28.466;-16.274;2022-09-21T06:20:34;99986.44;;;25.23;66.84
34031;BME280;20319;28.466;-16.274;2022-09-21T06:23:09;99965.03;;;25.08;67.13
34031;BME280;20319;28.466;-16.274;2022-09-21T06:28:53;99987.28;;;25.12;66.75
34031;BME280;20319;28.466;-16.274;2022-09-21T06:31:20;99990.22;;;25.05;67.16
34031;BME280;20319;28.466;-16.274;2022-09-21T06:34:06;99993.88;;;25.11;67.37
34031;BME280;20319;28.466;-16.274;2022-09-21T06:36:46;99999.22;;;25.17;67.16
34031;BME280;20319;28.466;-16.274;2022-09-21T06:39:12;100010.06;;;25.24;67.54
34031;BME280;20319;28.466;-16.274;2022-09-21T06:41:40;100009.56;;;25.27;67.16
34031;BME280;20319;28.466;-16.274;2022-09-21T06:44:22;100012.41;;;25.32;67.20
34031;BME280;20319;28.466;-16.274;2022-09-21T06:47:05;100003.72;;;25.35;67.48
34031;BME280;20319;28.466;-16.274;2022-09-21T06:49:41;100002.44;;;25.26;67.12
34031;BME280;20319;28.466;-16.274;2022-09-21T06:52:15;100013.41;;;25.26;67.38
34031;BME280;20319;28.466;-16.274;2022-09-21T06:54:41;100008.88;;;25.20;67.46
34031;BME280;20319;28.466;-16.274;2022-09-21T06:57:11;100019.84;;;25.20;67.87
34031;BME280;20319;28.466;-16.274;2022-09-21T06:59:50;100019.28;;;25.18;68.08
34031;BME280;20319;28.466;-16.274;2022-09-21T07:02:17;100014.19;;;25.10;67.65
34031;BME280;20319;28.466;-16.274;2022-09-21T07:04:46;100020.81;;;25.14;68.15
34031;BME280;20319;28.466;-16.274;2022-09-21T07:07:14;100013.69;;;25.13;68.34
34031;BME280;20319;28.466;-16.274;2022-09-21T07:09:40;100022.69;;;25.25;68.17
34031;BME280;20319;28.466;-16.274;2022-09-21T07:12:06;100023.88;;;25.29;68.21
34031;BME280;20319;28.466;-16.274;2022-09-21T07:14:35;100006.13;;;25.20;67.91
34031;BME280;20319;28.466;-16.274;2022-09-21T07:17:03;100023.41;;;25.32;67.85
34031;BME280;20319;28.466;-16.274;2022-09-21T07:19:30;100015.66;;;25.29;67.92
34031;BME280;20319;28.466;-16.274;2022-09-21T07:21:56;100027.94;;;25.38;67.82
34031;BME280;20319;28.466;-16.274;2022-09-21T07:24:21;100026.13;;;25.43;67.71
34031;BME280;20319;28.466;-16.274;2022-09-21T07:26:47;100024.31;;;25.49;67.68
34031;BME280;20319;28.466;-16.274;2022-09-21T07:29:13;100028.81;;;25.55;67.63
34031;BME280;20319;28.466;-16.274;2022-09-21T07:31:43;100027.25;;;25.59;67.92
34031;BME280;20319;28.466;-16.274;2022-09-21T07:34:12;100036.16;;;25.66;67.67
34031;BME280;20319;28.466;-16.274;2022-09-21T07:36:38;100026.59;;;25.68;67.51
34031;BME280;20319;28.466;-16.274;2022-09-21T07:39:12;100029.94;;;25.70;67.77
34031;BME280;20319;28.466;-16.274;2022-09-21T07:41:39;100030.50;;;25.72;67.51
34031;BME280;20319;28.466;-16.274;2022-09-21T07:44:09;100021.50;;;25.77;67.56
34031;BME280;20319;28.466;-16.274;2022-09-21T07:46:42;100024.84;;;25.79;67.24
34031;BME280;20319;28.466;-16.274;2022-09-21T07:49:17;100025.44;;;25.81;67.37
34031;BME280;20319;28.466;-16.274;2022-09-21T07:51:43;100034.84;;;25.85;67.02
34031;BME280;20319;28.466;-16.274;2022-09-21T07:54:15;100025.19;;;25.82;66.89
34031;BME280;20319;28.466;-16.274;2022-09-21T07:56:45;100030.53;;;25.89;67.29
34031;BME280;20319;28.466;-16.274;2022-09-21T07:59:43;100034.13;;;25.89;67.33
34031;BME280;20319;28.466;-16.274;2022-09-21T08:02:28;100038.28;;;25.92;67.49
34031;BME280;20319;28.466;-16.274;2022-09-21T08:05:04;100041.63;;;25.94;67.29
34031;BME280;20319;28.466;-16.274;2022-09-21T08:07:29;100038.53;;;25.90;67.47
34031;BME280;20319;28.466;-16.274;2022-09-21T08:10:02;100016.97;;;25.82;67.47
34031;BME280;20319;28.466;-16.274;2022-09-21T08:12:33;100033.88;;;25.91;67.26
34031;BME280;20319;28.466;-16.274;2022-09-21T08:15:00;100040.44;;;25.90;67.39
34031;BME280;20319;28.466;-16.274;2022-09-21T08:17:44;100038.88;;;25.94;67.64
34031;BME280;20319;28.466;-16.274;2022-09-21T08:20:14;100039.69;;;25.94;67.64
34031;BME280;20319;28.466;-16.274;2022-09-21T08:22:46;100054.84;;;25.97;67.45
34031;BME280;20319;28.466;-16.274;2022-09-21T08:25:30;100056.50;;;25.98;67.29
34031;BME280;20319;28.466;-16.274;2022-09-21T08:28:09;100055.44;;;25.99;67.46
34031;BME280;20319;28.466;-16.274;2022-09-21T08:30:34;100058.53;;;26.02;67.38
34031;BME280;20319;28.466;-16.274;2022-09-21T08:33:12;100068.22;;;26.05;67.52
34031;BME280;20319;28.466;-16.274;2022-09-21T08:35:50;100060.56;;;26.07;67.21
34031;BME280;20319;28.466;-16.274;2022-09-21T08:38:36;100068.06;;;26.11;67.50
34031;BME280;20319;28.466;-16.274;2022-09-21T08:44:37;100073.72;;;26.22;66.62
34031;BME280;20319;28.466;-16.274;2022-09-21T08:47:40;100084.72;;;26.22;66.41
34031;BME280;20319;28.466;-16.274;2022-09-21T08:56:53;100091.72;;;26.29;66.60
34031;BME280;20319;28.466;-16.274;2022-09-21T08:59:18;100089.28;;;26.33;66.37
34031;BME280;20319;28.466;-16.274;2022-09-21T09:01:52;100072.88;;;26.38;66.33
34031;BME280;20319;28.466;-16.274;2022-09-21T09:04:30;100079.22;;;26.38;64.59
34031;BME280;20319;28.466;-16.274;2022-09-21T09:07:32;100086.97;;;26.41;64.49
34031;BME280;20319;28.466;-16.274;2022-09-21T09:20:28;100085.47;;;26.67;63.61
34031;BME280;20319;28.466;-16.274;2022-09-21T09:26:18;100090.88;;;26.78;62.39
34031;BME280;20319;28.466;-16.274;2022-09-21T09:29:05;100089.78;;;26.79;61.70
34031;BME280;20319;28.466;-16.274;2022-09-21T09:32:03;100091.22;;;26.82;61.50
34031;BME280;20319;28.466;-16.274;2022-09-21T09:34:40;100097.09;;;26.90;61.24
34031;BME280;20319;28.466;-16.274;2022-09-21T09:37:30;100099.94;;;26.95;61.25
34031;BME280;20319;28.466;-16.274;2022-09-21T09:50:36;100111.00;;;27.38;60.68
34031;BME280;20319;28.466;-16.274;2022-09-21T09:53:39;100119.66;;;27.47;61.03
34031;BME280;20319;28.466;-16.274;2022-09-21T09:56:33;100111.81;;;27.61;60.78
34031;BME280;20319;28.466;-16.274;2022-09-21T10:02:31;100129.25;;;27.44;60.66
34031;BME280;20319;28.466;-16.274;2022-09-21T10:12:18;100129.81;;;27.68;60.00
34031;BME280;20319;28.466;-16.274;2022-09-21T10:15:09;100122.00;;;27.60;60.45
34031;BME280;20319;28.466;-16.274;2022-09-21T10:17:40;100133.22;;;27.75;60.19
34031;BME280;20319;28.466;-16.274;2022-09-21T10:20:36;100139.50;;;27.71;60.60
34031;BME280;20319;28.466;-16.274;2022-09-21T10:24:17;100142.16;;;27.87;60.73
34031;BME280;20319;28.466;-16.274;2022-09-21T10:27:37;100136.53;;;27.99;60.25
34031;BME280;20319;28.466;-16.274;2022-09-21T10:30:37;100140.59;;;27.91;60.32
34031;BME280;20319;28.466;-16.274;2022-09-21T10:33:20;100142.41;;;27.86;60.39
34031;BME280;20319;28.466;-16.274;2022-09-21T10:39:09;100137.34;;;28.26;61.37
34031;BME280;20319;28.466;-16.274;2022-09-21T10:55:36;100133.50;;;28.90;61.17
34031;BME280;20319;28.466;-16.274;2022-09-21T11:05:13;100129.72;;;29.06;60.73
34031;BME280;20319;28.466;-16.274;2022-09-21T11:08:14;100131.19;;;29.14;61.06
34031;BME280;20319;28.466;-16.274;2022-09-21T11:18:33;100123.34;;;29.47;61.17
34031;BME280;20319;28.466;-16.274;2022-09-21T11:42:03;100125.63;;;29.65;60.69
34031;BME280;20319;28.466;-16.274;2022-09-21T11:45:12;100123.47;;;29.77;60.62
34031;BME280;20319;28.466;-16.274;2022-09-21T11:48:27;100138.97;;;29.88;60.25
34031;BME280;20319;28.466;-16.274;2022-09-21T12:19:44;100137.44;;;30.33;59.01
34031;BME280;20319;28.466;-16.274;2022-09-21T12:22:38;100134.06;;;30.20;58.82
34031;BME280;20319;28.466;-16.274;2022-09-21T12:25:27;100135.38;;;29.88;59.47
34031;BME280;20319;28.466;-16.274;2022-09-21T12:48:12;100111.63;;;29.30;58.96
34031;BME280;20319;28.466;-16.274;2022-09-21T13:00:36;100099.69;;;29.71;58.10
34031;BME280;20319;28.466;-16.274;2022-09-21T13:10:22;100082.38;;;29.34;60.64
34031;BME280;20319;28.466;-16.274;2022-09-21T13:13:49;100074.72;;;29.51;60.43
34031;BME280;20319;28.466;-16.274;2022-09-21T13:16:37;100080.84;;;29.63;60.71
34031;BME280;20319;28.466;-16.274;2022-09-21T13:19:40;100088.09;;;29.74;60.08
34031;BME280;20319;28.466;-16.274;2022-09-21T13:22:24;100078.97;;;29.84;60.27
34031;BME280;20319;28.466;-16.274;2022-09-21T13:25:18;100077.34;;;29.98;59.80
34031;BME280;20319;28.466;-16.274;2022-09-21T13:34:55;100063.28;;;30.29;58.95
34031;BME280;20319;28.466;-16.274;2022-09-21T13:54:22;100053.84;;;30.25;57.69
34031;BME280;20319;28.466;-16.274;2022-09-21T14:03:51;100033.34;;;30.06;56.60
34031;BME280;20319;28.466;-16.274;2022-09-21T14:06:31;100041.94;;;30.20;56.56
34031;BME280;20319;28.466;-16.274;2022-09-21T14:09:07;100042.78;;;30.25;56.09
34031;BME280;20319;28.466;-16.274;2022-09-21T14:12:07;100046.69;;;30.35;56.05
34031;BME280;20319;28.466;-16.274;2022-09-21T14:14:37;100044.47;;;30.32;55.92
34031;BME280;20319;28.466;-16.274;2022-09-21T14:17:38;100059.09;;;30.17;56.03
34031;BME280;20319;28.466;-16.274;2022-09-21T14:20:29;100056.59;;;30.10;56.38
34031;BME280;20319;28.466;-16.274;2022-09-21T14:23:27;100040.00;;;29.95;57.16
34031;BME280;20319;28.466;-16.274;2022-09-21T14:29:25;100046.34;;;29.71;57.71
34031;BME280;20319;28.466;-16.274;2022-09-21T14:32:32;100046.88;;;29.68;57.53
34031;BME280;20319;28.466;-16.274;2022-09-21T14:39:04;100048.75;;;29.52;58.23
34031;BME280;20319;28.466;-16.274;2022-09-21T14:41:54;100050.38;;;29.48;59.14
34031;BME280;20319;28.466;-16.274;2022-09-21T15:27:58;100026.41;;;29.69;58.22
34031;BME280;20319;28.466;-16.274;2022-09-21T15:30:44;100039.13;;;29.70;58.19
34031;BME280;20319;28.466;-16.274;2022-09-21T15:33:17;100028.34;;;29.73;58.73
34031;BME280;20319;28.466;-16.274;2022-09-21T15:35:49;100034.16;;;29.72;57.96
34031;BME280;20319;28.466;-16.274;2022-09-21T15:38:32;100026.66;;;29.62;58.59
34031;BME280;20319;28.466;-16.274;2022-09-21T15:44:41;100044.28;;;29.46;59.70
34031;BME280;20319;28.466;-16.274;2022-09-21T15:47:24;100041.53;;;29.46;59.73
34031;BME280;20319;28.466;-16.274;2022-09-21T15:49:55;100032.44;;;29.46;59.65
34031;BME280;20319;28.466;-16.274;2022-09-21T15:56:00;100032.19;;;29.52;59.92
34031;BME280;20319;28.466;-16.274;2022-09-21T15:58:38;100024.41;;;29.49;60.02
34031;BME280;20319;28.466;-16.274;2022-09-21T16:01:13;100015.59;;;29.47;59.98
34031;BME280;20319;28.466;-16.274;2022-09-21T16:04:23;100027.44;;;29.48;60.32
34031;BME280;20319;28.466;-16.274;2022-09-21T16:16:26;100038.59;;;29.06;61.05
34031;BME280;20319;28.466;-16.274;2022-09-21T16:18:58;100029.75;;;29.04;61.40
34031;BME280;20319;28.466;-16.274;2022-09-21T16:24:52;100025.09;;;29.10;61.12
34031;BME280;20319;28.466;-16.274;2022-09-21T16:27:29;100024.28;;;29.14;60.87
34031;BME280;20319;28.466;-16.274;2022-09-21T16:53:53;100022.41;;;28.73;61.17
34031;BME280;20319;28.466;-16.274;2022-09-21T16:56:22;100015.78;;;28.69;60.80
34031;BME280;20319;28.466;-16.274;2022-09-21T17:02:48;100026.16;;;28.52;61.21
34031;BME280;20319;28.466;-16.274;2022-09-21T17:05:20;100026.38;;;28.45;61.26
34031;BME280;20319;28.466;-16.274;2022-09-21T17:07:57;100019.66;;;28.31;62.15
34031;BME280;20319;28.466;-16.274;2022-09-21T17:10:31;100027.25;;;28.19;63.26
34031;BME280;20319;28.466;-16.274;2022-09-21T17:13:12;100020.91;;;28.19;62.90
34031;BME280;20319;28.466;-16.274;2022-09-21T17:15:46;100017.59;;;28.17;63.19
34031;BME280;20319;28.466;-16.274;2022-09-21T17:35:31;100015.66;;;28.17;62.54
34031;BME280;20319;28.466;-16.274;2022-09-21T17:38:17;100026.94;;;28.16;62.02
34031;BME280;20319;28.466;-16.274;2022-09-21T18:13:15;100018.88;;;27.51;61.87
34031;BME280;20319;28.466;-16.274;2022-09-21T18:38:39;100037.84;;;27.47;62.33
34031;BME280;20319;28.466;-16.274;2022-09-21T18:44:46;100048.91;;;27.52;61.75
34031;BME280;20319;28.466;-16.274;2022-09-21T18:54:51;100063.00;;;27.56;60.74
34031;BME280;20319;28.466;-16.274;2022-09-21T18:57:36;100066.59;;;27.57;60.78
34031;BME280;20319;28.466;-16.274;2022-09-21T19:14:25;100070.22;;;27.35;57.88
34031;BME280;20319;28.466;-16.274;2022-09-21T19:24:09;100085.91;;;27.35;62.06
34031;BME280;20319;28.466;-16.274;2022-09-21T19:30:13;100085.81;;;27.30;62.77
34031;BME280;20319;28.466;-16.274;2022-09-21T19:32:53;100080.22;;;27.25;62.57
34031;BME280;20319;28.466;-16.274;2022-09-21T19:35:29;100087.66;;;27.24;62.60
34031;BME280;20319;28.466;-16.274;2022-09-21T19:38:06;100084.91;;;27.24;62.88
34031;BME280;20319;28.466;-16.274;2022-09-21T19:40:40;100093.19;;;27.24;62.69
34031;BME280;20319;28.466;-16.274;2022-09-21T19:48:58;100075.16;;;27.17;62.91
34031;BME280;20319;28.466;-16.274;2022-09-21T19:51:43;100090.16;;;27.26;62.85
34031;BME280;20319;28.466;-16.274;2022-09-21T19:54:21;100085.97;;;27.23;62.30
34031;BME280;20319;28.466;-16.274;2022-09-21T19:57:17;100090.78;;;27.28;62.16
34031;BME280;20319;28.466;-16.274;2022-09-21T20:00:08;100096.59;;;27.31;61.78
34031;BME280;20319;28.466;-16.274;2022-09-21T20:03:27;100093.56;;;27.33;60.68
34031;BME280;20319;28.466;-16.274;2022-09-21T20:09:28;100103.44;;;27.29;59.24
34031;BME280;20319;28.466;-16.274;2022-09-21T20:12:33;100097.94;;;27.29;59.40
34031;BME280;20319;28.466;-16.274;2022-09-21T20:15:30;100088.75;;;27.23;59.13
34031;BME280;20319;28.466;-16.274;2022-09-21T20:28:56;100109.88;;;27.18;58.27
34031;BME280;20319;28.466;-16.274;2022-09-21T20:31:35;100124.22;;;27.20;57.69
34031;BME280;20319;28.466;-16.274;2022-09-21T20:34:18;100117.63;;;27.21;57.81
34031;BME280;20319;28.466;-16.274;2022-09-21T20:37:08;100133.31;;;27.20;57.29
34031;BME280;20319;28.466;-16.274;2022-09-21T20:40:18;100130.63;;;27.25;57.63
34031;BME280;20319;28.466;-16.274;2022-09-21T20:42:51;100128.50;;;27.27;57.29
34031;BME280;20319;28.466;-16.274;2022-09-21T20:45:23;100137.22;;;27.24;57.65
34031;BME280;20319;28.466;-16.274;2022-09-21T20:51:14;100112.13;;;27.21;57.71
34031;BME280;20319;28.466;-16.274;2022-09-21T20:54:01;100135.97;;;27.32;57.43
34031;BME280;20319;28.466;-16.274;2022-09-21T20:56:44;100123.56;;;27.29;57.67
34031;BME280;20319;28.466;-16.274;2022-09-21T20:59:16;100129.38;;;27.33;57.22
34031;BME280;20319;28.466;-16.274;2022-09-21T21:01:54;100123.47;;;27.24;57.45
34031;BME280;20319;28.466;-16.274;2022-09-21T21:04:48;100134.84;;;27.28;57.36
34031;BME280;20319;28.466;-16.274;2022-09-21T21:11:02;100138.41;;;27.28;57.22
34031;BME280;20319;28.466;-16.274;2022-09-21T21:13:30;100129.75;;;27.20;56.98
34031;BME280;20319;28.466;-16.274;2022-09-21T21:15:57;100142.47;;;27.26;57.55
34031;BME280;20319;28.466;-16.274;2022-09-21T21:19:07;100143.00;;;27.23;57.31
34031;BME280;20319;28.466;-16.274;2022-09-21T21:22:11;100149.81;;;27.20;57.50
34031;BME280;20319;28.466;-16.274;2022-09-21T21:24:58;100151.19;;;27.18;57.67
34031;BME280;20319;28.466;-16.274;2022-09-21T21:27:32;100138.69;;;27.10;57.24
34031;BME280;20319;28.466;-16.274;2022-09-21T21:30:04;100146.88;;;27.05;57.71
34031;BME280;20319;28.466;-16.274;2022-09-21T21:32:34;100149.03;;;27.03;57.50
34031;BME280;20319;28.466;-16.274;2022-09-21T21:35:18;100152.72;;;26.92;57.68
34031;BME280;20319;28.466;-16.274;2022-09-21T21:37:44;100144.66;;;26.86;57.96
34031;BME280;20319;28.466;-16.274;2022-09-21T21:43:44;100143.72;;;26.80;57.70
34031;BME280;20319;28.466;-16.274;2022-09-21T21:46:20;100164.25;;;26.89;57.66
34031;BME280;20319;28.466;-16.274;2022-09-21T21:48:57;100165.00;;;26.85;57.43
34031;BME280;20319;28.466;-16.274;2022-09-21T21:51:49;100170.69;;;26.78;57.25
34031;BME280;20319;28.466;-16.274;2022-09-21T21:54:37;100169.50;;;26.74;57.46
34031;BME280;20319;28.466;-16.274;2022-09-21T21:57:14;100167.34;;;26.76;57.86
34031;BME280;20319;28.466;-16.274;2022-09-21T22:03:19;100163.41;;;26.89;57.48
34031;BME280;20319;28.466;-16.274;2022-09-21T22:10:26;100173.72;;;26.98;57.56
34031;BME280;20319;28.466;-16.274;2022-09-21T22:13:26;100179.22;;;26.98;57.77
34031;BME280;20319;28.466;-16.274;2022-09-21T22:16:07;100176.22;;;27.00;58.29
34031;BME280;20319;28.466;-16.274;2022-09-21T22:18:39;100180.41;;;27.02;58.54
34031;BME280;20319;28.466;-16.274;2022-09-21T22:21:21;100181.22;;;27.03;58.97
34031;BME280;20319;28.466;-16.274;2022-09-21T22:24:01;100183.81;;;27.09;59.15
34031;BME280;20319;28.466;-16.274;2022-09-21T22:26:44;100183.28;;;27.12;59.44
34031;BME280;20319;28.466;-16.274;2022-09-21T22:29:24;100173.38;;;27.11;59.12
34031;BME280;20319;28.466;-16.274;2022-09-21T22:31:49;100164.72;;;27.03;59.33
34031;BME280;20319;28.466;-16.274;2022-09-21T22:34:16;100186.03;;;27.12;59.75
34031;BME280;20319;28.466;-16.274;2022-09-21T22:36:46;100179.91;;;27.05;59.90
34031;BME280;20319;28.466;-16.274;2022-09-21T22:39:20;100178.47;;;27.03;60.14
34031;BME280;20319;28.466;-16.274;2022-09-21T22:41:45;100180.97;;;27.04;60.16
34031;BME280;20319;28.466;-16.274;2022-09-21T22:44:17;100159.38;;;26.96;60.30
34031;BME280;20319;28.466;-16.274;2022-09-21T22:46:52;100171.31;;;27.02;60.21
34031;BME280;20319;28.466;-16.274;2022-09-21T22:49:25;100169.31;;;26.97;60.38
34031;BME280;20319;28.466;-16.274;2022-09-21T22:51:55;100171.47;;;26.95;60.32
34031;BME280;20319;28.466;-16.274;2022-09-21T22:54:33;100176.41;;;26.93;60.17
34031;BME280;20319;28.466;-16.274;2022-09-21T22:57:04;100172.84;;;26.93;60.51
34031;BME280;20319;28.466;-16.274;2022-09-21T22:59:41;100170.91;;;26.93;60.50
34031;BME280;20319;28.466;-16.274;2022-09-21T23:02:42;100173.66;;;26.93;59.60
34031;BME280;20319;28.466;-16.274;2022-09-21T23:05:43;100179.16;;;26.93;60.01
34031;BME280;20319;28.466;-16.274;2022-09-21T23:08:10;100174.91;;;26.86;59.82
34031;BME280;20319;28.466;-16.274;2022-09-21T23:10:38;100166.56;;;26.81;59.98
34031;BME280;20319;28.466;-16.274;2022-09-21T23:13:11;100183.09;;;26.81;59.77
34031;BME280;20319;28.466;-16.274;2022-09-21T23:15:52;100186.69;;;26.81;59.54
34031;BME280;20319;28.466;-16.274;2022-09-21T23:21:57;100189.19;;;26.83;59.11
34031;BME280;20319;28.466;-16.274;2022-09-21T23:24:47;100188.25;;;26.77;59.21
34031;BME280;20319;28.466;-16.274;2022-09-21T23:27:18;100173.25;;;26.68;59.39
34031;BME280;20319;28.466;-16.274;2022-09-21T23:30:08;100182.59;;;26.67;59.50
34031;BME280;20319;28.466;-16.274;2022-09-21T23:32:44;100180.91;;;26.66;59.85
34031;BME280;20319;28.466;-16.274;2022-09-21T23:38:36;100176.72;;;26.64;59.97
34031;BME280;20319;28.466;-16.274;2022-09-21T23:44:59;100180.06;;;26.49;60.22
34031;BME280;20319;28.466;-16.274;2022-09-21T23:50:49;100170.16;;;26.48;60.68
34031;BME280;20319;28.466;-16.274;2022-09-21T23:57:33;100171.53;;;26.51;60.53
